sensor_id;sensor_type;location;lat;lon;timestamp;P1;durP1;ratioP1;P2;durP2;ratioP2
51515;SDS011;37603;55.614;37.326;2022-12-07T00:02:34;6.5;;;2.2;;
51515;SDS011;37603;55.614;37.326;2022-12-07T00:08:33;5.9;;;2.0;;
51515;SDS011;37603;55.614;37.326;2022-12-07T00:14:31;5.3;;;2.2;;
51515;SDS011;37603;55.614;37.326;2022-12-07T00:20:29;5.6;;;2.2;;
51515;SDS011;37603;55.614;37.326;2022-12-07T00:26:28;4.3;;;2.1;;
51515;SDS011;37603;55.614;37.326;2022-12-07T00:32:26;4.4;;;2.0;;
51515;SDS011;37603;55.614;37.326;2022-12-07T00:38:24;4.9;;;2.4;;
51515;SDS011;37603;55.614;37.326;2022-12-07T00:44:22;7.0;;;2.5;;
51515;SDS011;37603;55.614;37.326;2022-12-07T00:50:21;5.1;;;2.4;;
51515;SDS011;37603;55.614;37.326;2022-12-07T00:56:19;5.4;;;2.7;;
51515;SDS011;37603;55.614;37.326;2022-12-07T01:02:17;6.9;;;2.1;;
51515;SDS011;37603;55.614;37.326;2022-12-07T01:08:15;9.8;;;3.0;;
51515;SDS011;37603;55.614;37.326;2022-12-07T01:14:13;6.1;;;2.4;;
51515;SDS011;37603;55.614;37.326;2022-12-07T01:20:12;6.8;;;2.5;;
51515;SDS011;37603;55.614;37.326;2022-12-07T01:26:10;5.4;;;2.2;;
51515;SDS011;37603;55.614;37.326;2022-12-07T01:32:08;6.4;;;2.2;;
51515;SDS011;37603;55.614;37.326;2022-12-07T01:38:06;6.0;;;2.2;;
51515;SDS011;37603;55.614;37.326;2022-12-07T01:44:09;7.8;;;2.4;;
51515;SDS011;37603;55.614;37.326;2022-12-07T01:50:03;5.9;;;2.5;;
51515;SDS011;37603;55.614;37.326;2022-12-07T01:56:01;5.8;;;2.2;;
51515;SDS011;37603;55.614;37.326;2022-12-07T02:01:59;3.1;;;2.2;;
51515;SDS011;37603;55.614;37.326;2022-12-07T02:07:57;7.2;;;2.3;;
51515;SDS011;37603;55.614;37.326;2022-12-07T02:13:56;6.2;;;2.4;;
51515;SDS011;37603;55.614;37.326;2022-12-07T02:20:00;8.4;;;2.6;;
51515;SDS011;37603;55.614;37.326;2022-12-07T02:25:56;5.6;;;2.3;;
51515;SDS011;37603;55.614;37.326;2022-12-07T02:31:53;7.8;;;2.6;;
51515;SDS011;37603;55.614;37.326;2022-12-07T02:37:51;7.0;;;2.4;;
51515;SDS011;37603;55.614;37.326;2022-12-07T02:43:47;6.3;;;2.5;;
51515;SDS011;37603;55.614;37.326;2022-12-07T02:49:45;5.8;;;2.4;;
51515;SDS011;37603;55.614;37.326;2022-12-07T02:55:43;7.6;;;2.3;;
51515;SDS011;37603;55.614;37.326;2022-12-07T03:01:42;5.9;;;2.3;;
51515;SDS011;37603;55.614;37.326;2022-12-07T03:07:42;8.1;;;2.9;;
51515;SDS011;37603;55.614;37.326;2022-12-07T03:13:38;4.8;;;2.3;;
51515;SDS011;37603;55.614;37.326;2022-12-07T03:19:36;6.5;;;2.6;;
51515;SDS011;37603;55.614;37.326;2022-12-07T03:25:34;6.3;;;2.4;;
51515;SDS011;37603;55.614;37.326;2022-12-07T03:31:33;8.3;;;2.7;;
51515;SDS011;37603;55.614;37.326;2022-12-07T03:37:31;5.6;;;2.7;;
51515;SDS011;37603;55.614;37.326;2022-12-07T03:43:29;7.0;;;2.8;;
51515;SDS011;37603;55.614;37.326;2022-12-07T03:49:28;6.1;;;2.7;;
51515;SDS011;37603;55.614;37.326;2022-12-07T03:55:27;6.0;;;2.3;;
51515;SDS011;37603;55.614;37.326;2022-12-07T04:01:23;6.4;;;2.7;;
51515;SDS011;37603;55.614;37.326;2022-12-07T04:07:21;5.9;;;2.5;;
51515;SDS011;37603;55.614;37.326;2022-12-07T04:13:19;7.5;;;2.7;;
51515;SDS011;37603;55.614;37.326;2022-12-07T04:19:18;6.6;;;2.5;;
51515;SDS011;37603;55.614;37.326;2022-12-07T04:25:16;6.0;;;2.0;;
51515;SDS011;37603;55.614;37.326;2022-12-07T04:31:14;5.6;;;2.2;;
51515;SDS011;37603;55.614;37.326;2022-12-07T04:37:12;7.7;;;2.7;;
51515;SDS011;37603;55.614;37.326;2022-12-07T04:43:10;7.1;;;2.4;;
51515;SDS011;37603;55.614;37.326;2022-12-07T04:49:09;9.7;;;2.6;;
51515;SDS011;37603;55.614;37.326;2022-12-07T04:55:07;5.8;;;2.4;;
51515;SDS011;37603;55.614;37.326;2022-12-07T05:01:05;6.5;;;2.3;;
51515;SDS011;37603;55.614;37.326;2022-12-07T05:07:03;4.3;;;2.4;;
51515;SDS011;37603;55.614;37.326;2022-12-07T05:13:01;4.8;;;2.3;;
51515;SDS011;37603;55.614;37.326;2022-12-07T05:18:59;5.3;;;2.5;;
51515;SDS011;37603;55.614;37.326;2022-12-07T05:24:57;6.5;;;2.5;;
51515;SDS011;37603;55.614;37.326;2022-12-07T05:30:56;5.7;;;2.9;;
51515;SDS011;37603;55.614;37.326;2022-12-07T05:36:54;5.6;;;2.6;;
51515;SDS011;37603;55.614;37.326;2022-12-07T05:42:52;7.0;;;2.6;;
51515;SDS011;37603;55.614;37.326;2022-12-07T05:48:50;8.7;;;2.8;;
51515;SDS011;37603;55.614;37.326;2022-12-07T05:54:48;5.5;;;2.7;;
51515;SDS011;37603;55.614;37.326;2022-12-07T06:00:46;6.1;;;2.3;;
51515;SDS011;37603;55.614;37.326;2022-12-07T06:06:45;5.6;;;2.4;;
51515;SDS011;37603;55.614;37.326;2022-12-07T06:12:43;7.6;;;2.9;;
51515;SDS011;37603;55.614;37.326;2022-12-07T06:18:41;7.3;;;3.2;;
51515;SDS011;37603;55.614;37.326;2022-12-07T06:24:39;8.2;;;2.9;;
51515;SDS011;37603;55.614;37.326;2022-12-07T06:30:37;9.3;;;3.1;;
51515;SDS011;37603;55.614;37.326;2022-12-07T06:36:36;9.2;;;2.8;;
51515;SDS011;37603;55.614;37.326;2022-12-07T06:42:34;7.5;;;2.7;;
51515;SDS011;37603;55.614;37.326;2022-12-07T06:48:32;6.5;;;2.8;;
51515;SDS011;37603;55.614;37.326;2022-12-07T06:54:30;6.2;;;2.9;;
51515;SDS011;37603;55.614;37.326;2022-12-07T07:00:28;7.4;;;2.9;;
51515;SDS011;37603;55.614;37.326;2022-12-07T07:06:26;7.9;;;2.9;;
51515;SDS011;37603;55.614;37.326;2022-12-07T07:12:24;6.7;;;3.4;;
51515;SDS011;37603;55.614;37.326;2022-12-07T07:18:23;7.5;;;3.2;;
51515;SDS011;37603;55.614;37.326;2022-12-07T07:24:21;9.6;;;3.1;;
51515;SDS011;37603;55.614;37.326;2022-12-07T07:30:19;7.7;;;2.8;;
51515;SDS011;37603;55.614;37.326;2022-12-07T07:36:17;8.5;;;2.6;;
51515;SDS011;37603;55.614;37.326;2022-12-07T07:42:16;8.2;;;3.0;;
51515;SDS011;37603;55.614;37.326;2022-12-07T07:48:14;6.9;;;3.0;;
51515;SDS011;37603;55.614;37.326;2022-12-07T07:54:12;8.2;;;3.3;;
51515;SDS011;37603;55.614;37.326;2022-12-07T08:00:11;6.7;;;3.5;;
51515;SDS011;37603;55.614;37.326;2022-12-07T08:06:08;9.6;;;3.8;;
51515;SDS011;37603;55.614;37.326;2022-12-07T08:12:07;8.7;;;3.5;;
51515;SDS011;37603;55.614;37.326;2022-12-07T08:18:05;7.6;;;3.4;;
51515;SDS011;37603;55.614;37.326;2022-12-07T08:24:03;7.0;;;2.8;;
51515;SDS011;37603;55.614;37.326;2022-12-07T08:30:02;9.8;;;3.6;;
51515;SDS011;37603;55.614;37.326;2022-12-07T08:36:00;7.0;;;3.0;;
51515;SDS011;37603;55.614;37.326;2022-12-07T08:41:58;6.0;;;2.8;;
51515;SDS011;37603;55.614;37.326;2022-12-07T08:47:57;7.8;;;3.0;;
51515;SDS011;37603;55.614;37.326;2022-12-07T08:53:54;7.7;;;3.3;;
51515;SDS011;37603;55.614;37.326;2022-12-07T08:59:53;7.6;;;2.9;;
51515;SDS011;37603;55.614;37.326;2022-12-07T09:05:52;7.4;;;3.3;;
51515;SDS011;37603;55.614;37.326;2022-12-07T09:11:49;6.9;;;2.8;;
51515;SDS011;37603;55.614;37.326;2022-12-07T09:17:48;5.9;;;3.3;;
51515;SDS011;37603;55.614;37.326;2022-12-07T09:23:46;10.2;;;3.4;;
51515;SDS011;37603;55.614;37.326;2022-12-07T09:29:44;12.0;;;3.6;;
51515;SDS011;37603;55.614;37.326;2022-12-07T09:35:44;7.9;;;2.9;;
51515;SDS011;37603;55.614;37.326;2022-12-07T09:41:41;9.4;;;3.7;;
51515;SDS011;37603;55.614;37.326;2022-12-07T09:47:39;10.6;;;2.9;;
51515;SDS011;37603;55.614;37.326;2022-12-07T09:53:37;7.9;;;3.2;;
51515;SDS011;37603;55.614;37.326;2022-12-07T10:05:36;7.3;;;2.9;;
51515;SDS011;37603;55.614;37.326;2022-12-07T10:11:32;8.5;;;2.9;;
51515;SDS011;37603;55.614;37.326;2022-12-07T10:17:32;8.9;;;3.2;;
51515;SDS011;37603;55.614;37.326;2022-12-07T10:23:29;8.2;;;3.5;;
51515;SDS011;37603;55.614;37.326;2022-12-07T10:29:29;7.7;;;3.1;;
51515;SDS011;37603;55.614;37.326;2022-12-07T10:35:26;10.0;;;3.1;;
51515;SDS011;37603;55.614;37.326;2022-12-07T10:41:24;9.5;;;3.4;;
51515;SDS011;37603;55.614;37.326;2022-12-07T10:47:29;8.1;;;3.1;;
51515;SDS011;37603;55.614;37.326;2022-12-07T10:53:32;7.2;;;2.8;;
51515;SDS011;37603;55.614;37.326;2022-12-07T10:59:23;9.3;;;3.4;;
51515;SDS011;37603;55.614;37.326;2022-12-07T11:05:19;10.2;;;3.1;;
51515;SDS011;37603;55.614;37.326;2022-12-07T11:11:16;10.4;;;3.5;;
51515;SDS011;37603;55.614;37.326;2022-12-07T11:17:15;7.3;;;3.1;;
51515;SDS011;37603;55.614;37.326;2022-12-07T11:23:16;8.4;;;3.4;;
51515;SDS011;37603;55.614;37.326;2022-12-07T11:29:15;8.3;;;3.3;;
51515;SDS011;37603;55.614;37.326;2022-12-07T11:35:11;7.9;;;3.8;;
51515;SDS011;37603;55.614;37.326;2022-12-07T11:41:08;8.1;;;3.7;;
51515;SDS011;37603;55.614;37.326;2022-12-07T11:47:07;7.4;;;2.9;;
51515;SDS011;37603;55.614;37.326;2022-12-07T11:53:05;9.4;;;3.6;;
51515;SDS011;37603;55.614;37.326;2022-12-07T11:59:04;9.7;;;4.0;;
51515;SDS011;37603;55.614;37.326;2022-12-07T12:05:02;9.8;;;4.0;;
51515;SDS011;37603;55.614;37.326;2022-12-07T12:11:00;12.9;;;4.1;;
51515;SDS011;37603;55.614;37.326;2022-12-07T12:22:58;9.3;;;3.7;;
51515;SDS011;37603;55.614;37.326;2022-12-07T12:28:54;10.0;;;3.7;;
51515;SDS011;37603;55.614;37.326;2022-12-07T12:35:02;8.5;;;3.7;;
51515;SDS011;37603;55.614;37.326;2022-12-07T12:40:51;11.5;;;4.1;;
51515;SDS011;37603;55.614;37.326;2022-12-07T12:46:50;12.8;;;4.1;;
51515;SDS011;37603;55.614;37.326;2022-12-07T12:52:50;10.7;;;3.9;;
51515;SDS011;37603;55.614;37.326;2022-12-07T12:58:46;12.3;;;4.3;;
51515;SDS011;37603;55.614;37.326;2022-12-07T13:04:48;13.5;;;4.8;;
51515;SDS011;37603;55.614;37.326;2022-12-07T13:10:43;12.3;;;4.1;;
51515;SDS011;37603;55.614;37.326;2022-12-07T13:16:41;13.7;;;4.8;;
51515;SDS011;37603;55.614;37.326;2022-12-07T13:22:40;12.9;;;5.3;;
51515;SDS011;37603;55.614;37.326;2022-12-07T13:28:38;11.4;;;4.8;;
51515;SDS011;37603;55.614;37.326;2022-12-07T13:34:36;13.8;;;4.7;;
51515;SDS011;37603;55.614;37.326;2022-12-07T13:40:34;13.2;;;4.5;;
51515;SDS011;37603;55.614;37.326;2022-12-07T13:46:40;12.7;;;4.6;;
51515;SDS011;37603;55.614;37.326;2022-12-07T13:52:30;11.3;;;4.4;;
51515;SDS011;37603;55.614;37.326;2022-12-07T13:58:30;13.4;;;4.9;;
51515;SDS011;37603;55.614;37.326;2022-12-07T14:04:30;11.9;;;4.7;;
51515;SDS011;37603;55.614;37.326;2022-12-07T14:10:26;13.3;;;5.2;;
51515;SDS011;37603;55.614;37.326;2022-12-07T14:16:26;15.3;;;4.6;;
51515;SDS011;37603;55.614;37.326;2022-12-07T14:22:24;11.5;;;5.2;;
51515;SDS011;37603;55.614;37.326;2022-12-07T14:28:28;13.8;;;5.5;;
51515;SDS011;37603;55.614;37.326;2022-12-07T14:34:19;13.3;;;5.2;;
51515;SDS011;37603;55.614;37.326;2022-12-07T14:40:17;10.4;;;4.5;;
51515;SDS011;37603;55.614;37.326;2022-12-07T14:46:14;13.0;;;4.3;;
51515;SDS011;37603;55.614;37.326;2022-12-07T14:52:13;10.6;;;4.6;;
51515;SDS011;37603;55.614;37.326;2022-12-07T14:58:12;10.0;;;4.2;;
51515;SDS011;37603;55.614;37.326;2022-12-07T15:04:09;12.9;;;4.7;;
51515;SDS011;37603;55.614;37.326;2022-12-07T15:10:11;12.5;;;4.7;;
51515;SDS011;37603;55.614;37.326;2022-12-07T15:16:07;13.5;;;4.9;;
51515;SDS011;37603;55.614;37.326;2022-12-07T15:22:04;13.9;;;5.2;;
51515;SDS011;37603;55.614;37.326;2022-12-07T15:28:02;13.6;;;5.0;;
51515;SDS011;37603;55.614;37.326;2022-12-07T15:34:00;13.0;;;5.4;;
51515;SDS011;37603;55.614;37.326;2022-12-07T15:39:59;11.3;;;4.5;;
51515;SDS011;37603;55.614;37.326;2022-12-07T15:51:55;12.2;;;4.8;;
51515;SDS011;37603;55.614;37.326;2022-12-07T15:57:54;10.2;;;4.9;;
51515;SDS011;37603;55.614;37.326;2022-12-07T16:03:52;10.8;;;4.9;;
51515;SDS011;37603;55.614;37.326;2022-12-07T16:09:50;10.9;;;4.6;;
51515;SDS011;37603;55.614;37.326;2022-12-07T16:15:48;12.3;;;4.5;;
51515;SDS011;37603;55.614;37.326;2022-12-07T16:21:47;11.7;;;4.5;;
51515;SDS011;37603;55.614;37.326;2022-12-07T16:27:45;11.8;;;4.9;;
51515;SDS011;37603;55.614;37.326;2022-12-07T16:33:43;14.3;;;5.6;;
51515;SDS011;37603;55.614;37.326;2022-12-07T16:39:42;11.7;;;4.0;;
51515;SDS011;37603;55.614;37.326;2022-12-07T16:45:40;11.4;;;4.2;;
51515;SDS011;37603;55.614;37.326;2022-12-07T16:51:38;12.1;;;5.0;;
51515;SDS011;37603;55.614;37.326;2022-12-07T16:57:36;18.2;;;4.4;;
51515;SDS011;37603;55.614;37.326;2022-12-07T17:03:35;10.7;;;4.3;;
51515;SDS011;37603;55.614;37.326;2022-12-07T17:09:33;13.7;;;4.6;;
51515;SDS011;37603;55.614;37.326;2022-12-07T17:15:31;10.3;;;4.1;;
51515;SDS011;37603;55.614;37.326;2022-12-07T17:21:30;11.9;;;4.9;;
51515;SDS011;37603;55.614;37.326;2022-12-07T17:27:28;13.4;;;4.5;;
51515;SDS011;37603;55.614;37.326;2022-12-07T17:33:26;12.8;;;4.6;;
51515;SDS011;37603;55.614;37.326;2022-12-07T17:39:24;11.3;;;4.6;;
51515;SDS011;37603;55.614;37.326;2022-12-07T17:45:22;15.9;;;5.2;;
51515;SDS011;37603;55.614;37.326;2022-12-07T17:51:21;10.7;;;4.2;;
51515;SDS011;37603;55.614;37.326;2022-12-07T17:57:19;11.6;;;4.8;;
51515;SDS011;37603;55.614;37.326;2022-12-07T18:03:17;12.5;;;4.8;;
51515;SDS011;37603;55.614;37.326;2022-12-07T18:09:15;12.7;;;5.1;;
51515;SDS011;37603;55.614;37.326;2022-12-07T18:15:14;10.6;;;4.5;;
51515;SDS011;37603;55.614;37.326;2022-12-07T18:21:12;10.1;;;4.7;;
51515;SDS011;37603;55.614;37.326;2022-12-07T18:27:10;14.2;;;5.1;;
51515;SDS011;37603;55.614;37.326;2022-12-07T18:33:08;14.8;;;4.7;;
51515;SDS011;37603;55.614;37.326;2022-12-07T18:39:07;10.8;;;4.1;;
51515;SDS011;37603;55.614;37.326;2022-12-07T18:45:05;11.6;;;4.3;;
51515;SDS011;37603;55.614;37.326;2022-12-07T18:51:03;11.8;;;4.5;;
51515;SDS011;37603;55.614;37.326;2022-12-07T18:57:01;15.0;;;5.1;;
51515;SDS011;37603;55.614;37.326;2022-12-07T19:02:59;9.5;;;4.2;;
51515;SDS011;37603;55.614;37.326;2022-12-07T19:08:58;10.8;;;4.7;;
51515;SDS011;37603;55.614;37.326;2022-12-07T19:14:56;11.3;;;4.0;;
51515;SDS011;37603;55.614;37.326;2022-12-07T19:20:54;9.7;;;4.0;;
51515;SDS011;37603;55.614;37.326;2022-12-07T19:26:52;8.1;;;3.5;;
51515;SDS011;37603;55.614;37.326;2022-12-07T19:32:50;12.3;;;4.0;;
51515;SDS011;37603;55.614;37.326;2022-12-07T19:38:49;12.6;;;4.2;;
51515;SDS011;37603;55.614;37.326;2022-12-07T19:44:47;11.1;;;3.9;;
51515;SDS011;37603;55.614;37.326;2022-12-07T19:50:45;9.5;;;4.2;;
51515;SDS011;37603;55.614;37.326;2022-12-07T19:56:43;10.6;;;4.0;;
51515;SDS011;37603;55.614;37.326;2022-12-07T20:02:41;8.8;;;4.0;;
51515;SDS011;37603;55.614;37.326;2022-12-07T20:08:40;9.0;;;3.7;;
51515;SDS011;37603;55.614;37.326;2022-12-07T20:14:38;9.9;;;4.3;;
51515;SDS011;37603;55.614;37.326;2022-12-07T20:20:36;8.6;;;4.0;;
51515;SDS011;37603;55.614;37.326;2022-12-07T20:26:35;7.8;;;3.6;;
51515;SDS011;37603;55.614;37.326;2022-12-07T20:32:33;10.3;;;4.2;;
51515;SDS011;37603;55.614;37.326;2022-12-07T20:38:31;8.4;;;3.6;;
51515;SDS011;37603;55.614;37.326;2022-12-07T20:44:29;8.8;;;3.3;;
51515;SDS011;37603;55.614;37.326;2022-12-07T20:50:27;9.4;;;3.6;;
51515;SDS011;37603;55.614;37.326;2022-12-07T20:56:27;8.1;;;3.2;;
51515;SDS011;37603;55.614;37.326;2022-12-07T21:02:24;6.5;;;3.4;;
51515;SDS011;37603;55.614;37.326;2022-12-07T21:08:22;10.5;;;4.4;;
51515;SDS011;37603;55.614;37.326;2022-12-07T21:14:20;15.7;;;3.5;;
51515;SDS011;37603;55.614;37.326;2022-12-07T21:20:18;10.3;;;4.0;;
51515;SDS011;37603;55.614;37.326;2022-12-07T21:26:17;10.0;;;3.6;;
51515;SDS011;37603;55.614;37.326;2022-12-07T21:32:15;9.0;;;4.0;;
51515;SDS011;37603;55.614;37.326;2022-12-07T21:38:13;8.8;;;3.6;;
51515;SDS011;37603;55.614;37.326;2022-12-07T21:44:11;7.1;;;3.1;;
51515;SDS011;37603;55.614;37.326;2022-12-07T21:50:10;10.7;;;4.2;;
51515;SDS011;37603;55.614;37.326;2022-12-07T21:56:10;9.5;;;3.5;;
51515;SDS011;37603;55.614;37.326;2022-12-07T22:02:08;9.1;;;3.7;;
51515;SDS011;37603;55.614;37.326;2022-12-07T22:08:04;6.8;;;3.1;;
51515;SDS011;37603;55.614;37.326;2022-12-07T22:14:03;12.2;;;3.6;;
51515;SDS011;37603;55.614;37.326;2022-12-07T22:20:01;10.1;;;3.5;;
51515;SDS011;37603;55.614;37.326;2022-12-07T22:26:03;7.8;;;3.5;;
51515;SDS011;37603;55.614;37.326;2022-12-07T22:31:58;11.7;;;3.3;;
51515;SDS011;37603;55.614;37.326;2022-12-07T22:37:56;10.4;;;3.9;;
51515;SDS011;37603;55.614;37.326;2022-12-07T22:43:55;6.9;;;3.5;;
51515;SDS011;37603;55.614;37.326;2022-12-07T22:49:52;7.6;;;3.4;;
51515;SDS011;37603;55.614;37.326;2022-12-07T22:55:51;11.3;;;4.2;;
51515;SDS011;37603;55.614;37.326;2022-12-07T23:01:49;8.8;;;3.5;;
51515;SDS011;37603;55.614;37.326;2022-12-07T23:07:47;10.6;;;4.3;;
51515;SDS011;37603;55.614;37.326;2022-12-07T23:13:46;9.5;;;3.5;;
51515;SDS011;37603;55.614;37.326;2022-12-07T23:19:44;9.2;;;3.7;;
51515;SDS011;37603;55.614;37.326;2022-12-07T23:25:42;8.4;;;4.0;;
51515;SDS011;37603;55.614;37.326;2022-12-07T23:31:40;11.6;;;4.2;;
51515;SDS011;37603;55.614;37.326;2022-12-07T23:37:39;9.6;;;3.5;;
51515;SDS011;37603;55.614;37.326;2022-12-07T23:43:37;11.3;;;4.4;;
51515;SDS011;37603;55.614;37.326;2022-12-07T23:49:35;10.5;;;4.4;;
51515;SDS011;37603;55.614;37.326;2022-12-07T23:55:34;10.2;;;4.3;;
